Minocqua, Wisconsin
Current Conditions -  °F | °C
As of 5:55 AM on Thursday 27 Nov 2014 (Local Time) from KARV Reporting Station
Light Snow Light Snow  
Wind Chill: -4°   Ceiling: Unl
Heat Index:   Visibility: 2.5mi
Dew Point:   Wind: 7mph
Humidity: 85%   Direction: 320°NW
Pressure: 30.27"   Gusts: NA
Location:  45.93°N, 89.73°W
Report Text: KARV 271155Z AUTO 32006KT 2 1/2SM -SN SCT020 M13/M15 A3027 RMK AO2 T11351155 11085 21144
Loading
Personal Weather Stations






























Interactive Weather Map New forecast layout! Learn more

10-Day Weather Forecast

Advertisements
Track Severe Weather on mobile